sensor_id;sensor_type;location;lat;lon;timestamp;temperature;humidity
22974;DHT22;11653;50.848;4.584;2022-09-12T00:00:32;14.80;99.90
22974;DHT22;11653;50.848;4.584;2022-09-12T00:02:58;14.90;99.90
22974;DHT22;11653;50.848;4.584;2022-09-12T00:05:24;14.80;99.90
22974;DHT22;11653;50.848;4.584;2022-09-12T00:07:51;14.60;99.90
22974;DHT22;11653;50.848;4.584;2022-09-12T00:10:17;14.50;99.90
22974;DHT22;11653;50.848;4.584;2022-09-12T00:12:43;14.60;99.90
22974;DHT22;11653;50.848;4.584;2022-09-12T00:15:09;14.50;99.90
22974;DHT22;11653;50.848;4.584;2022-09-12T00:17:36;14.50;99.90
22974;DHT22;11653;50.848;4.584;2022-09-12T00:20:04;14.50;99.90
22974;DHT22;11653;50.848;4.584;2022-09-12T00:22:31;14.50;99.90
22974;DHT22;11653;50.848;4.584;2022-09-12T00:24:56;14.60;99.90
22974;DHT22;11653;50.848;4.584;2022-09-12T00:27:22;14.50;99.90
22974;DHT22;11653;50.848;4.584;2022-09-12T00:29:47;14.50;99.90
22974;DHT22;11653;50.848;4.584;2022-09-12T00:32:13;14.40;99.90
22974;DHT22;11653;50.848;4.584;2022-09-12T00:34:39;14.40;99.90
22974;DHT22;11653;50.848;4.584;2022-09-12T00:37:04;14.40;99.90
22974;DHT22;11653;50.848;4.584;2022-09-12T00:39:30;14.40;99.90
22974;DHT22;11653;50.848;4.584;2022-09-12T00:41:56;14.40;99.90
22974;DHT22;11653;50.848;4.584;2022-09-12T00:47:26;14.40;99.90
22974;DHT22;11653;50.848;4.584;2022-09-12T00:52:28;14.30;99.90
22974;DHT22;11653;50.848;4.584;2022-09-12T00:55:06;14.30;99.90
22974;DHT22;11653;50.848;4.584;2022-09-12T00:57:37;14.30;99.90
22974;DHT22;11653;50.848;4.584;2022-09-12T01:00:14;14.30;99.90
22974;DHT22;11653;50.848;4.584;2022-09-12T01:02:43;14.30;99.90
22974;DHT22;11653;50.848;4.584;2022-09-12T01:05:10;14.30;99.90
22974;DHT22;11653;50.848;4.584;2022-09-12T01:07:37;14.30;99.90
22974;DHT22;11653;50.848;4.584;2022-09-12T01:10:06;14.20;99.90
22974;DHT22;11653;50.848;4.584;2022-09-12T01:12:32;14.20;99.90
22974;DHT22;11653;50.848;4.584;2022-09-12T01:14:59;14.20;99.90
22974;DHT22;11653;50.848;4.584;2022-09-12T01:26:20;14.30;99.90
22974;DHT22;11653;50.848;4.584;2022-09-12T01:36:54;14.10;99.90
22974;DHT22;11653;50.848;4.584;2022-09-12T01:47:38;14.10;99.90
22974;DHT22;11653;50.848;4.584;2022-09-12T01:50:12;14.10;99.90
22974;DHT22;11653;50.848;4.584;2022-09-12T01:55:19;14.10;99.90
22974;DHT22;11653;50.848;4.584;2022-09-12T02:00:38;14.10;99.90
22974;DHT22;11653;50.848;4.584;2022-09-12T02:03:13;14.00;99.90
22974;DHT22;11653;50.848;4.584;2022-09-12T02:05:55;14.10;99.90
22974;DHT22;11653;50.848;4.584;2022-09-12T02:08:29;14.00;99.90
22974;DHT22;11653;50.848;4.584;2022-09-12T02:11:00;14.00;99.90
22974;DHT22;11653;50.848;4.584;2022-09-12T02:14:05;13.90;99.90
22974;DHT22;11653;50.848;4.584;2022-09-12T02:16:36;13.90;99.90
22974;DHT22;11653;50.848;4.584;2022-09-12T02:19:25;13.80;99.90
22974;DHT22;11653;50.848;4.584;2022-09-12T02:21:55;13.90;99.90
22974;DHT22;11653;50.848;4.584;2022-09-12T02:24:26;13.80;99.90
22974;DHT22;11653;50.848;4.584;2022-09-12T02:26:57;13.80;99.90
22974;DHT22;11653;50.848;4.584;2022-09-12T02:29:24;13.90;99.90
22974;DHT22;11653;50.848;4.584;2022-09-12T02:35:02;13.80;99.90
22974;DHT22;11653;50.848;4.584;2022-09-12T02:40:03;13.70;99.90
22974;DHT22;11653;50.848;4.584;2022-09-12T02:42:31;13.70;99.90
22974;DHT22;11653;50.848;4.584;2022-09-12T02:44:57;13.70;99.90
22974;DHT22;11653;50.848;4.584;2022-09-12T02:47:27;13.80;99.90
22974;DHT22;11653;50.848;4.584;2022-09-12T02:49:56;13.80;99.90
22974;DHT22;11653;50.848;4.584;2022-09-12T02:52:22;13.80;99.90
22974;DHT22;11653;50.848;4.584;2022-09-12T02:54:49;13.80;99.90
22974;DHT22;11653;50.848;4.584;2022-09-12T02:57:20;13.80;99.90
22974;DHT22;11653;50.848;4.584;2022-09-12T02:59:47;13.90;99.90
22974;DHT22;11653;50.848;4.584;2022-09-12T03:02:34;13.80;99.90
22974;DHT22;11653;50.848;4.584;2022-09-12T03:07:58;13.90;99.90
22974;DHT22;11653;50.848;4.584;2022-09-12T03:21:12;13.70;99.90
22974;DHT22;11653;50.848;4.584;2022-09-12T03:26:21;13.60;99.90
22974;DHT22;11653;50.848;4.584;2022-09-12T03:28:48;13.50;99.90
22974;DHT22;11653;50.848;4.584;2022-09-12T03:31:16;13.50;99.90
22974;DHT22;11653;50.848;4.584;2022-09-12T03:33:43;13.50;99.90
22974;DHT22;11653;50.848;4.584;2022-09-12T03:36:29;13.50;99.90
22974;DHT22;11653;50.848;4.584;2022-09-12T03:38:55;13.50;99.90
22974;DHT22;11653;50.848;4.584;2022-09-12T03:41:21;13.40;99.90
22974;DHT22;11653;50.848;4.584;2022-09-12T03:43:47;13.50;99.90
22974;DHT22;11653;50.848;4.584;2022-09-12T03:46:13;13.50;99.90
22974;DHT22;11653;50.848;4.584;2022-09-12T03:48:39;13.40;99.90
22974;DHT22;11653;50.848;4.584;2022-09-12T03:51:08;13.40;99.90
22974;DHT22;11653;50.848;4.584;2022-09-12T03:53:34;13.30;99.90
22974;DHT22;11653;50.848;4.584;2022-09-12T03:56:04;13.30;99.90
22974;DHT22;11653;50.848;4.584;2022-09-12T03:58:30;13.30;99.90
22974;DHT22;11653;50.848;4.584;2022-09-12T04:00:56;13.30;99.90
22974;DHT22;11653;50.848;4.584;2022-09-12T04:03:21;13.30;99.90
22974;DHT22;11653;50.848;4.584;2022-09-12T04:05:47;13.30;99.90
22974;DHT22;11653;50.848;4.584;2022-09-12T04:08:13;13.20;99.90
22974;DHT22;11653;50.848;4.584;2022-09-12T04:10:39;13.20;99.90
22974;DHT22;11653;50.848;4.584;2022-09-12T04:13:04;13.20;99.90
22974;DHT22;11653;50.848;4.584;2022-09-12T04:15:30;13.20;99.90
22974;DHT22;11653;50.848;4.584;2022-09-12T04:17:56;13.10;99.90
22974;DHT22;11653;50.848;4.584;2022-09-12T04:20:21;13.10;99.90
22974;DHT22;11653;50.848;4.584;2022-09-12T04:22:47;13.00;99.90
22974;DHT22;11653;50.848;4.584;2022-09-12T04:25:13;13.00;99.90
22974;DHT22;11653;50.848;4.584;2022-09-12T04:27:39;13.00;99.90
22974;DHT22;11653;50.848;4.584;2022-09-12T04:30:06;13.00;99.90
22974;DHT22;11653;50.848;4.584;2022-09-12T04:32:32;13.00;99.90
22974;DHT22;11653;50.848;4.584;2022-09-12T04:34:57;13.00;99.90
22974;DHT22;11653;50.848;4.584;2022-09-12T04:37:23;13.00;99.90
22974;DHT22;11653;50.848;4.584;2022-09-12T04:39:49;13.00;99.90
22974;DHT22;11653;50.848;4.584;2022-09-12T04:42:16;12.90;99.90
22974;DHT22;11653;50.848;4.584;2022-09-12T04:44:42;12.90;99.90
22974;DHT22;11653;50.848;4.584;2022-09-12T04:47:08;12.90;99.90
22974;DHT22;11653;50.848;4.584;2022-09-12T04:49:33;12.90;99.90
22974;DHT22;11653;50.848;4.584;2022-09-12T04:51:59;13.00;99.90
22974;DHT22;11653;50.848;4.584;2022-09-12T04:54:25;13.00;99.90
22974;DHT22;11653;50.848;4.584;2022-09-12T04:56:51;13.00;99.90
22974;DHT22;11653;50.848;4.584;2022-09-12T04:59:18;13.00;99.90
22974;DHT22;11653;50.848;4.584;2022-09-12T05:01:44;12.90;99.90
22974;DHT22;11653;50.848;4.584;2022-09-12T05:04:11;12.90;99.90
22974;DHT22;11653;50.848;4.584;2022-09-12T05:06:38;12.90;99.90
22974;DHT22;11653;50.848;4.584;2022-09-12T05:09:06;12.90;99.90
22974;DHT22;11653;50.848;4.584;2022-09-12T05:11:35;12.90;99.90
22974;DHT22;11653;50.848;4.584;2022-09-12T05:14:02;13.00;99.90
22974;DHT22;11653;50.848;4.584;2022-09-12T05:16:28;13.00;99.90
22974;DHT22;11653;50.848;4.584;2022-09-12T05:18:57;13.00;99.90
22974;DHT22;11653;50.848;4.584;2022-09-12T05:21:24;13.00;99.90
22974;DHT22;11653;50.848;4.584;2022-09-12T05:23:56;13.00;99.90
22974;DHT22;11653;50.848;4.584;2022-09-12T05:26:23;13.00;99.90
22974;DHT22;11653;50.848;4.584;2022-09-12T05:28:49;12.90;99.90
22974;DHT22;11653;50.848;4.584;2022-09-12T05:31:17;12.90;99.90
22974;DHT22;11653;50.848;4.584;2022-09-12T05:33:44;12.90;99.90
22974;DHT22;11653;50.848;4.584;2022-09-12T05:36:13;12.90;99.90
22974;DHT22;11653;50.848;4.584;2022-09-12T05:38:39;13.00;99.90
22974;DHT22;11653;50.848;4.584;2022-09-12T05:41:09;13.00;99.90
22974;DHT22;11653;50.848;4.584;2022-09-12T05:43:38;13.10;99.90
22974;DHT22;11653;50.848;4.584;2022-09-12T05:46:07;13.10;99.90
22974;DHT22;11653;50.848;4.584;2022-09-12T05:48:34;13.10;99.90
22974;DHT22;11653;50.848;4.584;2022-09-12T05:51:03;13.20;99.90
22974;DHT22;11653;50.848;4.584;2022-09-12T05:53:30;13.30;99.90
22974;DHT22;11653;50.848;4.584;2022-09-12T05:56:10;13.40;99.90
22974;DHT22;11653;50.848;4.584;2022-09-12T05:58:40;13.50;99.90
22974;DHT22;11653;50.848;4.584;2022-09-12T06:01:14;13.60;99.90
22974;DHT22;11653;50.848;4.584;2022-09-12T06:03:48;13.70;99.90
22974;DHT22;11653;50.848;4.584;2022-09-12T06:06:15;13.80;99.90
22974;DHT22;11653;50.848;4.584;2022-09-12T06:08:42;14.10;99.90
22974;DHT22;11653;50.848;4.584;2022-09-12T06:11:10;14.20;99.90
22974;DHT22;11653;50.848;4.584;2022-09-12T06:13:37;14.30;99.90
22974;DHT22;11653;50.848;4.584;2022-09-12T06:16:06;14.40;99.90
22974;DHT22;11653;50.848;4.584;2022-09-12T06:18:33;14.60;99.90
22974;DHT22;11653;50.848;4.584;2022-09-12T06:21:07;14.80;99.90
22974;DHT22;11653;50.848;4.584;2022-09-12T06:23:34;15.10;99.90
22974;DHT22;11653;50.848;4.584;2022-09-12T06:26:00;15.50;99.90
22974;DHT22;11653;50.848;4.584;2022-09-12T06:28:27;16.00;99.90
22974;DHT22;11653;50.848;4.584;2022-09-12T06:30:53;16.80;99.90
22974;DHT22;11653;50.848;4.584;2022-09-12T06:33:19;17.70;99.90
22974;DHT22;11653;50.848;4.584;2022-09-12T06:35:45;18.70;99.90
22974;DHT22;11653;50.848;4.584;2022-09-12T06:38:11;19.80;99.90
22974;DHT22;11653;50.848;4.584;2022-09-12T06:40:42;21.00;99.90
22974;DHT22;11653;50.848;4.584;2022-09-12T06:43:10;22.20;99.90
22974;DHT22;11653;50.848;4.584;2022-09-12T06:45:38;23.30;99.90
22974;DHT22;11653;50.848;4.584;2022-09-12T06:48:03;24.30;99.70
22974;DHT22;11653;50.848;4.584;2022-09-12T06:50:30;25.20;98.40
22974;DHT22;11653;50.848;4.584;2022-09-12T06:52:56;26.10;96.60
22974;DHT22;11653;50.848;4.584;2022-09-12T06:55:21;26.70;94.30
22974;DHT22;11653;50.848;4.584;2022-09-12T06:57:49;27.50;93.40
22974;DHT22;11653;50.848;4.584;2022-09-12T07:00:14;28.00;91.10
22974;DHT22;11653;50.848;4.584;2022-09-12T07:02:40;28.50;90.00
22974;DHT22;11653;50.848;4.584;2022-09-12T07:05:06;28.60;87.60
22974;DHT22;11653;50.848;4.584;2022-09-12T07:07:33;29.10;86.30
22974;DHT22;11653;50.848;4.584;2022-09-12T07:10:00;29.60;85.00
22974;DHT22;11653;50.848;4.584;2022-09-12T07:12:27;30.00;81.00
22974;DHT22;11653;50.848;4.584;2022-09-12T07:14:53;30.20;80.80
22974;DHT22;11653;50.848;4.584;2022-09-12T07:17:19;30.50;79.60
22974;DHT22;11653;50.848;4.584;2022-09-12T07:19:44;30.70;78.50
22974;DHT22;11653;50.848;4.584;2022-09-12T07:22:10;30.80;76.40
22974;DHT22;11653;50.848;4.584;2022-09-12T07:24:36;31.00;76.70
22974;DHT22;11653;50.848;4.584;2022-09-12T07:27:03;31.30;75.40
22974;DHT22;11653;50.848;4.584;2022-09-12T07:29:28;31.60;74.10
22974;DHT22;11653;50.848;4.584;2022-09-12T07:31:54;31.90;72.60
22974;DHT22;11653;50.848;4.584;2022-09-12T07:34:20;31.70;71.90
22974;DHT22;11653;50.848;4.584;2022-09-12T07:36:45;31.50;72.50
22974;DHT22;11653;50.848;4.584;2022-09-12T07:39:11;31.30;72.90
22974;DHT22;11653;50.848;4.584;2022-09-12T07:41:36;31.20;72.70
22974;DHT22;11653;50.848;4.584;2022-09-12T07:44:02;31.00;74.10
22974;DHT22;11653;50.848;4.584;2022-09-12T07:46:30;31.20;74.20
22974;DHT22;11653;50.848;4.584;2022-09-12T07:48:57;31.30;73.40
22974;DHT22;11653;50.848;4.584;2022-09-12T07:51:25;31.80;72.50
22974;DHT22;11653;50.848;4.584;2022-09-12T07:53:51;32.40;71.20
22974;DHT22;11653;50.848;4.584;2022-09-12T07:56:17;32.50;70.20
22974;DHT22;11653;50.848;4.584;2022-09-12T07:58:44;32.50;69.70
22974;DHT22;11653;50.848;4.584;2022-09-12T08:01:15;32.50;69.80
22974;DHT22;11653;50.848;4.584;2022-09-12T08:03:42;32.50;70.20
22974;DHT22;11653;50.848;4.584;2022-09-12T08:08:35;33.10;68.10
22974;DHT22;11653;50.848;4.584;2022-09-12T08:11:04;33.10;68.50
22974;DHT22;11653;50.848;4.584;2022-09-12T08:13:31;33.20;67.80
22974;DHT22;11653;50.848;4.584;2022-09-12T08:16:02;33.50;67.50
22974;DHT22;11653;50.848;4.584;2022-09-12T08:18:29;33.40;67.00
22974;DHT22;11653;50.848;4.584;2022-09-12T08:21:02;33.50;66.90
22974;DHT22;11653;50.848;4.584;2022-09-12T08:23:28;33.30;65.20
22974;DHT22;11653;50.848;4.584;2022-09-12T08:25:57;33.20;65.90
22974;DHT22;11653;50.848;4.584;2022-09-12T08:28:24;32.50;66.70
22974;DHT22;11653;50.848;4.584;2022-09-12T08:30:51;32.30;67.20
22974;DHT22;11653;50.848;4.584;2022-09-12T08:33:17;32.20;67.00
22974;DHT22;11653;50.848;4.584;2022-09-12T08:35:42;32.10;68.00
22974;DHT22;11653;50.848;4.584;2022-09-12T08:38:08;32.00;68.40
22974;DHT22;11653;50.848;4.584;2022-09-12T08:40:53;31.90;68.00
22974;DHT22;11653;50.848;4.584;2022-09-12T08:46:04;32.60;66.80
22974;DHT22;11653;50.848;4.584;2022-09-12T08:48:33;32.70;66.80
22974;DHT22;11653;50.848;4.584;2022-09-12T08:50:59;33.10;65.40
22974;DHT22;11653;50.848;4.584;2022-09-12T08:53:27;33.00;66.00
22974;DHT22;11653;50.848;4.584;2022-09-12T08:55:58;33.10;65.80
22974;DHT22;11653;50.848;4.584;2022-09-12T08:58:26;33.40;63.20
22974;DHT22;11653;50.848;4.584;2022-09-12T09:01:13;33.90;64.10
22974;DHT22;11653;50.848;4.584;2022-09-12T09:06:38;35.10;59.50
22974;DHT22;11653;50.848;4.584;2022-09-12T09:18:22;37.10;55.00
22974;DHT22;11653;50.848;4.584;2022-09-12T09:20:59;37.10;53.70
22974;DHT22;11653;50.848;4.584;2022-09-12T09:23:33;37.20;53.50
22974;DHT22;11653;50.848;4.584;2022-09-12T09:28:38;37.40;53.30
22974;DHT22;11653;50.848;4.584;2022-09-12T09:31:21;37.80;52.00
22974;DHT22;11653;50.848;4.584;2022-09-12T09:33:49;38.30;50.50
22974;DHT22;11653;50.848;4.584;2022-09-12T09:45:02;39.00;48.00
22974;DHT22;11653;50.848;4.584;2022-09-12T09:47:29;39.20;46.90
22974;DHT22;11653;50.848;4.584;2022-09-12T09:49:54;39.60;46.20
22974;DHT22;11653;50.848;4.584;2022-09-12T09:52:25;39.80;44.30
22974;DHT22;11653;50.848;4.584;2022-09-12T09:55:00;39.90;44.60
22974;DHT22;11653;50.848;4.584;2022-09-12T10:05:52;40.40;43.30
22974;DHT22;11653;50.848;4.584;2022-09-12T10:08:30;39.80;43.30
22974;DHT22;11653;50.848;4.584;2022-09-12T10:11:20;39.30;44.30
22974;DHT22;11653;50.848;4.584;2022-09-12T10:13:51;38.90;44.10
22974;DHT22;11653;50.848;4.584;2022-09-12T10:18:44;39.10;43.90
22974;DHT22;11653;50.848;4.584;2022-09-12T10:21:14;39.10;45.00
22974;DHT22;11653;50.848;4.584;2022-09-12T10:23:41;39.20;44.00
22974;DHT22;11653;50.848;4.584;2022-09-12T10:26:13;39.30;43.50
22974;DHT22;11653;50.848;4.584;2022-09-12T10:29:02;38.70;43.50
22974;DHT22;11653;50.848;4.584;2022-09-12T10:31:47;38.20;43.70
22974;DHT22;11653;50.848;4.584;2022-09-12T10:34:38;38.50;44.00
22974;DHT22;11653;50.848;4.584;2022-09-12T10:37:29;39.30;44.00
22974;DHT22;11653;50.848;4.584;2022-09-12T10:39:57;39.70;42.70
22974;DHT22;11653;50.848;4.584;2022-09-12T10:45:37;39.30;42.80
22974;DHT22;11653;50.848;4.584;2022-09-12T10:48:28;39.60;42.40
22974;DHT22;11653;50.848;4.584;2022-09-12T10:50:57;39.90;42.40
22974;DHT22;11653;50.848;4.584;2022-09-12T10:53:43;39.80;42.20
22974;DHT22;11653;50.848;4.584;2022-09-12T10:56:17;39.10;41.30
22974;DHT22;11653;50.848;4.584;2022-09-12T11:06:43;38.10;43.70
22974;DHT22;11653;50.848;4.584;2022-09-12T11:26:38;40.20;40.20
22974;DHT22;11653;50.848;4.584;2022-09-12T11:42:46;39.70;41.00
22974;DHT22;11653;50.848;4.584;2022-09-12T11:45:22;39.10;40.50
22974;DHT22;11653;50.848;4.584;2022-09-12T11:47:54;38.30;41.50
22974;DHT22;11653;50.848;4.584;2022-09-12T11:50:27;38.10;41.20
22974;DHT22;11653;50.848;4.584;2022-09-12T11:53:09;38.30;42.50
22974;DHT22;11653;50.848;4.584;2022-09-12T11:55:54;38.60;40.80
22974;DHT22;11653;50.848;4.584;2022-09-12T11:58:24;38.90;40.10
22974;DHT22;11653;50.848;4.584;2022-09-12T12:00:54;39.10;41.60
22974;DHT22;11653;50.848;4.584;2022-09-12T12:03:45;39.50;41.00
22974;DHT22;11653;50.848;4.584;2022-09-12T12:06:25;39.60;39.80
22974;DHT22;11653;50.848;4.584;2022-09-12T12:08:52;39.20;40.00
22974;DHT22;11653;50.848;4.584;2022-09-12T12:11:34;39.00;40.40
22974;DHT22;11653;50.848;4.584;2022-09-12T12:14:01;38.60;39.90
22974;DHT22;11653;50.848;4.584;2022-09-12T12:16:36;37.00;41.70
22974;DHT22;11653;50.848;4.584;2022-09-12T12:19:20;35.90;43.10
22974;DHT22;11653;50.848;4.584;2022-09-12T12:21:50;35.30;44.10
22974;DHT22;11653;50.848;4.584;2022-09-12T12:24:24;35.20;45.10
22974;DHT22;11653;50.848;4.584;2022-09-12T12:36:55;32.60;50.00
22974;DHT22;11653;50.848;4.584;2022-09-12T12:41:57;31.50;52.30
22974;DHT22;11653;50.848;4.584;2022-09-12T12:47:18;30.80;51.60
22974;DHT22;11653;50.848;4.584;2022-09-12T12:49:54;30.60;52.20
22974;DHT22;11653;50.848;4.584;2022-09-12T12:52:22;29.80;53.00
22974;DHT22;11653;50.848;4.584;2022-09-12T12:54:51;29.20;55.20
22974;DHT22;11653;50.848;4.584;2022-09-12T12:59:50;28.80;57.70
22974;DHT22;11653;50.848;4.584;2022-09-12T13:02:22;28.90;56.30
22974;DHT22;11653;50.848;4.584;2022-09-12T13:04:48;29.10;55.60
22974;DHT22;11653;50.848;4.584;2022-09-12T13:07:30;28.90;55.10
22974;DHT22;11653;50.848;4.584;2022-09-12T13:09:59;28.50;56.10
22974;DHT22;11653;50.848;4.584;2022-09-12T13:12:29;28.60;57.90
22974;DHT22;11653;50.848;4.584;2022-09-12T13:14:58;28.90;58.50
22974;DHT22;11653;50.848;4.584;2022-09-12T13:17:40;29.20;59.10
22974;DHT22;11653;50.848;4.584;2022-09-12T13:22:49;29.20;57.10
22974;DHT22;11653;50.848;4.584;2022-09-12T13:30:27;28.90;56.50
22974;DHT22;11653;50.848;4.584;2022-09-12T13:32:57;28.80;56.70
22974;DHT22;11653;50.848;4.584;2022-09-12T13:43:40;29.40;58.10
22974;DHT22;11653;50.848;4.584;2022-09-12T13:46:07;29.60;57.50
22974;DHT22;11653;50.848;4.584;2022-09-12T13:48:33;29.50;57.60
22974;DHT22;11653;50.848;4.584;2022-09-12T13:51:02;29.50;57.10
22974;DHT22;11653;50.848;4.584;2022-09-12T13:53:57;29.50;58.50
22974;DHT22;11653;50.848;4.584;2022-09-12T13:56:24;29.50;57.50
22974;DHT22;11653;50.848;4.584;2022-09-12T13:58:55;29.40;57.80
22974;DHT22;11653;50.848;4.584;2022-09-12T14:01:43;29.30;59.60
22974;DHT22;11653;50.848;4.584;2022-09-12T14:04:22;29.40;58.90
22974;DHT22;11653;50.848;4.584;2022-09-12T14:09:40;29.20;56.90
22974;DHT22;11653;50.848;4.584;2022-09-12T14:12:18;29.20;58.30
22974;DHT22;11653;50.848;4.584;2022-09-12T14:14:50;29.30;57.90
22974;DHT22;11653;50.848;4.584;2022-09-12T14:17:17;29.00;57.60
22974;DHT22;11653;50.848;4.584;2022-09-12T14:19:44;29.00;58.30
22974;DHT22;11653;50.848;4.584;2022-09-12T14:22:11;29.10;57.80
22974;DHT22;11653;50.848;4.584;2022-09-12T14:24:47;29.20;58.20
22974;DHT22;11653;50.848;4.584;2022-09-12T14:27:22;29.30;58.70
22974;DHT22;11653;50.848;4.584;2022-09-12T14:30:02;29.30;57.30
22974;DHT22;11653;50.848;4.584;2022-09-12T14:32:31;29.10;56.30
22974;DHT22;11653;50.848;4.584;2022-09-12T14:35:16;28.90;56.70
22974;DHT22;11653;50.848;4.584;2022-09-12T14:37:48;28.90;58.00
22974;DHT22;11653;50.848;4.584;2022-09-12T14:40:22;28.70;56.70
22974;DHT22;11653;50.848;4.584;2022-09-12T14:42:50;28.70;57.10
22974;DHT22;11653;50.848;4.584;2022-09-12T14:45:24;28.60;55.80
22974;DHT22;11653;50.848;4.584;2022-09-12T14:47:52;28.60;56.10
22974;DHT22;11653;50.848;4.584;2022-09-12T14:50:27;28.50;57.50
22974;DHT22;11653;50.848;4.584;2022-09-12T14:53:22;28.50;57.00
22974;DHT22;11653;50.848;4.584;2022-09-12T14:58:29;28.60;56.90
22974;DHT22;11653;50.848;4.584;2022-09-12T15:03:49;28.50;57.30
22974;DHT22;11653;50.848;4.584;2022-09-12T15:06:24;28.30;57.60
22974;DHT22;11653;50.848;4.584;2022-09-12T15:08:53;28.30;57.60
22974;DHT22;11653;50.848;4.584;2022-09-12T15:11:19;28.40;59.30
22974;DHT22;11653;50.848;4.584;2022-09-12T15:13:45;28.50;57.10
22974;DHT22;11653;50.848;4.584;2022-09-12T15:16:11;28.70;58.40
22974;DHT22;11653;50.848;4.584;2022-09-12T15:18:37;28.60;57.60
22974;DHT22;11653;50.848;4.584;2022-09-12T15:21:05;28.50;58.70
22974;DHT22;11653;50.848;4.584;2022-09-12T15:23:36;28.50;58.30
22974;DHT22;11653;50.848;4.584;2022-09-12T15:26:06;28.50;57.60
22974;DHT22;11653;50.848;4.584;2022-09-12T15:28:32;28.60;59.20
22974;DHT22;11653;50.848;4.584;2022-09-12T15:31:05;28.70;57.40
22974;DHT22;11653;50.848;4.584;2022-09-12T15:33:31;28.90;58.20
22974;DHT22;11653;50.848;4.584;2022-09-12T15:35:57;28.70;57.80
22974;DHT22;11653;50.848;4.584;2022-09-12T15:38:22;28.80;59.30
22974;DHT22;11653;50.848;4.584;2022-09-12T15:40:49;28.80;59.60
22974;DHT22;11653;50.848;4.584;2022-09-12T15:43:18;28.80;57.20
22974;DHT22;11653;50.848;4.584;2022-09-12T15:45:45;28.50;56.90
22974;DHT22;11653;50.848;4.584;2022-09-12T15:48:11;28.40;57.10
22974;DHT22;11653;50.848;4.584;2022-09-12T15:50:39;28.40;57.90
22974;DHT22;11653;50.848;4.584;2022-09-12T15:53:05;28.40;57.50
22974;DHT22;11653;50.848;4.584;2022-09-12T15:55:31;28.50;60.00
22974;DHT22;11653;50.848;4.584;2022-09-12T15:57:58;28.50;59.50
22974;DHT22;11653;50.848;4.584;2022-09-12T16:00:24;28.50;57.90
22974;DHT22;11653;50.848;4.584;2022-09-12T16:02:51;28.50;58.10
22974;DHT22;11653;50.848;4.584;2022-09-12T16:05:22;28.60;58.80
22974;DHT22;11653;50.848;4.584;2022-09-12T16:07:53;28.70;57.00
22974;DHT22;11653;50.848;4.584;2022-09-12T16:10:23;28.60;59.00
22974;DHT22;11653;50.848;4.584;2022-09-12T16:12:49;28.60;58.10
22974;DHT22;11653;50.848;4.584;2022-09-12T16:15:18;28.50;60.50
22974;DHT22;11653;50.848;4.584;2022-09-12T16:17:44;28.40;60.40
22974;DHT22;11653;50.848;4.584;2022-09-12T16:20:10;28.40;60.50
22974;DHT22;11653;50.848;4.584;2022-09-12T16:22:37;28.30;61.80
22974;DHT22;11653;50.848;4.584;2022-09-12T16:25:03;28.20;62.50
22974;DHT22;11653;50.848;4.584;2022-09-12T16:27:29;28.10;61.50
22974;DHT22;11653;50.848;4.584;2022-09-12T16:29:55;27.90;63.80
22974;DHT22;11653;50.848;4.584;2022-09-12T16:32:20;27.70;64.90
22974;DHT22;11653;50.848;4.584;2022-09-12T16:34:46;27.60;65.40
22974;DHT22;11653;50.848;4.584;2022-09-12T16:37:12;27.50;64.90
22974;DHT22;11653;50.848;4.584;2022-09-12T16:39:37;27.40;66.50
22974;DHT22;11653;50.848;4.584;2022-09-12T16:42:03;27.40;67.80
22974;DHT22;11653;50.848;4.584;2022-09-12T16:44:29;27.30;67.60
22974;DHT22;11653;50.848;4.584;2022-09-12T16:46:54;27.30;67.30
22974;DHT22;11653;50.848;4.584;2022-09-12T16:49:20;27.30;67.80
22974;DHT22;11653;50.848;4.584;2022-09-12T16:51:46;27.40;69.10
22974;DHT22;11653;50.848;4.584;2022-09-12T16:54:13;27.40;68.70
22974;DHT22;11653;50.848;4.584;2022-09-12T16:56:39;27.30;68.30
22974;DHT22;11653;50.848;4.584;2022-09-12T16:59:05;27.30;70.50
22974;DHT22;11653;50.848;4.584;2022-09-12T17:01:31;27.30;71.90
22974;DHT22;11653;50.848;4.584;2022-09-12T17:03:59;27.20;73.10
22974;DHT22;11653;50.848;4.584;2022-09-12T17:06:26;27.20;72.70
22974;DHT22;11653;50.848;4.584;2022-09-12T17:08:54;27.20;73.20
22974;DHT22;11653;50.848;4.584;2022-09-12T17:11:23;27.20;72.40
22974;DHT22;11653;50.848;4.584;2022-09-12T17:13:50;27.10;74.30
22974;DHT22;11653;50.848;4.584;2022-09-12T17:16:16;27.10;73.20
22974;DHT22;11653;50.848;4.584;2022-09-12T17:18:42;27.00;72.20
22974;DHT22;11653;50.848;4.584;2022-09-12T17:21:09;26.90;73.70
22974;DHT22;11653;50.848;4.584;2022-09-12T17:23:35;26.80;75.20
22974;DHT22;11653;50.848;4.584;2022-09-12T17:26:01;26.80;76.40
22974;DHT22;11653;50.848;4.584;2022-09-12T17:28:27;26.70;76.20
22974;DHT22;11653;50.848;4.584;2022-09-12T17:30:57;26.60;75.90
22974;DHT22;11653;50.848;4.584;2022-09-12T17:33:23;26.50;76.00
22974;DHT22;11653;50.848;4.584;2022-09-12T17:35:49;26.40;77.00
22974;DHT22;11653;50.848;4.584;2022-09-12T17:38:15;26.30;78.00
22974;DHT22;11653;50.848;4.584;2022-09-12T17:40:41;26.20;80.10
22974;DHT22;11653;50.848;4.584;2022-09-12T17:43:08;26.10;80.10
22974;DHT22;11653;50.848;4.584;2022-09-12T17:45:36;25.90;79.50
22974;DHT22;11653;50.848;4.584;2022-09-12T17:48:01;25.80;82.00
22974;DHT22;11653;50.848;4.584;2022-09-12T17:50:27;25.70;84.60
22974;DHT22;11653;50.848;4.584;2022-09-12T17:52:54;25.60;85.60
22974;DHT22;11653;50.848;4.584;2022-09-12T17:55:19;25.50;86.20
22974;DHT22;11653;50.848;4.584;2022-09-12T17:57:45;25.30;86.80
22974;DHT22;11653;50.848;4.584;2022-09-12T18:00:11;25.10;87.50
22974;DHT22;11653;50.848;4.584;2022-09-12T18:02:37;24.90;88.20
22974;DHT22;11653;50.848;4.584;2022-09-12T18:05:03;24.80;90.00
22974;DHT22;11653;50.848;4.584;2022-09-12T18:07:30;24.70;90.60
22974;DHT22;11653;50.848;4.584;2022-09-12T18:09:56;24.50;91.20
22974;DHT22;11653;50.848;4.584;2022-09-12T18:12:23;24.30;91.50
22974;DHT22;11653;50.848;4.584;2022-09-12T18:14:49;24.10;92.10
22974;DHT22;11653;50.848;4.584;2022-09-12T18:17:15;23.90;92.50
22974;DHT22;11653;50.848;4.584;2022-09-12T18:19:41;23.80;93.10
22974;DHT22;11653;50.848;4.584;2022-09-12T18:22:06;23.70;93.70
22974;DHT22;11653;50.848;4.584;2022-09-12T18:24:34;23.50;94.20
22974;DHT22;11653;50.848;4.584;2022-09-12T18:27:00;23.40;94.60
22974;DHT22;11653;50.848;4.584;2022-09-12T18:29:28;23.30;95.20
22974;DHT22;11653;50.848;4.584;2022-09-12T18:31:54;23.20;95.90
22974;DHT22;11653;50.848;4.584;2022-09-12T18:34:20;23.10;96.30
22974;DHT22;11653;50.848;4.584;2022-09-12T18:36:48;23.10;96.80
22974;DHT22;11653;50.848;4.584;2022-09-12T18:39:16;22.80;97.50
22974;DHT22;11653;50.848;4.584;2022-09-12T18:41:42;22.70;98.40
22974;DHT22;11653;50.848;4.584;2022-09-12T18:44:09;22.50;99.10